Terminal Aerodrome Forecast
Issued by NWS

Home | Current Version | Previous Version | Text Only | Print | Product List | Glossary On
Versions: 1 2 3 4 5 6 7 8 9 10 11 12 13 14 15 16 17 18 19 20 21 22 23 24
000
FTUS43 KILX 230804 AAA
TAFDEC
TAF AMD
KDEC 230804Z 2308/2406 15010KT 6SM BR VCSH OVC004
      TEMPO 2308/2311 2SM -RADZ BR OVC002
     FM231100 15010KT 1SM -RA BR OVC003
     FM231300 22007KT 2SM BR VCSH OVC003
     FM231500 26008KT P6SM OVC005
     FM231700 27007KT P6SM BKN012
     FM232200 28008KT P6SM OVC250=

USA.gov is the U.S. government's official web portal to all federal, state and local government web resources and services.